Time;durP1;ratioP1;P1;durP2;ratioP2;P2;SDS_P1;SDS_P2;PMS_P1;PMS_P2;Temp;Humidity;BMP_temperature;BMP_pressure;BME280_temperature;BME280_humidity;BME280_pressure;Samples;Min_cycle;Max_cycle;Signal;HPM_P1;HPM_P2
2023/04/29 00:00:25;;;;;;;14.40;10.20;;;8.30;99.90;;;;;;4871572;29;20051;-92
2023/04/29 00:02:50;;;;;;;15.13;9.77;;;8.30;99.90;;;;;;4864046;29;20116;-94
2023/04/29 00:05:16;;;;;;;19.00;10.73;;;8.30;99.90;;;;;;4864010;29;20510;-91
2023/04/29 00:07:42;;;;;;;19.10;11.02;;;8.40;99.90;;;;;;4864110;29;20029;-91
2023/04/29 00:10:08;;;;;;;24.33;12.18;;;8.40;99.90;;;;;;4863905;29;20113;-93
2023/04/29 00:12:34;;;;;;;20.05;10.95;;;8.40;99.90;;;;;;4863509;29;20025;-92
2023/04/29 00:15:01;;;;;;;17.35;10.00;;;8.40;99.90;;;;;;4863913;29;20025;-91
2023/04/29 00:17:27;;;;;;;14.55;9.73;;;8.40;99.90;;;;;;4863837;29;20104;-91
2023/04/29 00:19:53;;;;;;;15.30;9.32;;;8.40;99.90;;;;;;4863221;29;20021;-93
2023/04/29 00:22:20;;;;;;;15.13;10.15;;;8.40;99.90;;;;;;4863617;29;20036;-92
2023/04/29 00:24:46;;;;;;;12.68;9.85;;;8.40;99.90;;;;;;4864576;29;20044;-91
2023/04/29 00:27:12;;;;;;;10.88;8.90;;;8.40;99.90;;;;;;4863865;29;20048;-91
2023/04/29 00:29:37;;;;;;;13.57;9.35;;;8.40;99.90;;;;;;4863947;29;20406;-91
2023/04/29 00:32:04;;;;;;;13.23;8.90;;;8.40;99.90;;;;;;4863238;29;20064;-91
2023/04/29 00:34:29;;;;;;;15.82;9.18;;;8.40;99.90;;;;;;4864048;29;20088;-93
2023/04/29 00:36:55;;;;;;;13.27;8.80;;;8.40;99.90;;;;;;4863717;29;20112;-91
2023/04/29 00:39:20;;;;;;;12.95;9.43;;;8.40;99.90;;;;;;4863705;29;20085;-94
2023/04/29 00:41:46;;;;;;;12.30;9.55;;;8.40;99.90;;;;;;4863485;29;20045;-92
2023/04/29 00:44:12;;;;;;;12.88;9.43;;;8.40;99.90;;;;;;4863451;29;20160;-93
2023/04/29 00:46:38;;;;;;;11.52;9.10;;;8.40;99.90;;;;;;4863275;29;20025;-92
2023/04/29 00:49:04;;;;;;;15.77;10.70;;;8.40;99.90;;;;;;4863899;29;20494;-91
2023/04/29 00:51:30;;;;;;;19.75;10.88;;;8.30;99.90;;;;;;4864098;29;20036;-92
2023/04/29 00:53:56;;;;;;;16.55;10.40;;;8.30;99.90;;;;;;4863835;29;20531;-93
2023/04/29 00:56:22;;;;;;;18.65;10.77;;;8.20;99.90;;;;;;4864193;29;20109;-92
2023/04/29 00:58:49;;;;;;;16.13;10.18;;;8.20;99.90;;;;;;4869239;29;20507;-91
2023/04/29 01:01:18;;;;;;;17.27;10.38;;;8.10;99.90;;;;;;4876292;29;20044;-91
2023/04/29 01:03:45;;;;;;;15.63;9.68;;;8.10;99.90;;;;;;4874817;29;20292;-91
2023/04/29 01:06:52;;;;;;;18.13;11.52;;;8.00;99.90;;;;;;4871199;29;20125;-91
2023/04/29 01:09:49;;;;;;;18.52;9.57;;;8.00;99.90;;;;;;4885015;29;20052;-92
2023/04/29 01:12:24;;;;;;;19.88;11.27;;;8.00;99.90;;;;;;4885319;29;20028;-92
2023/04/29 01:15:15;;;;;;;20.83;11.60;;;8.00;99.90;;;;;;4881104;29;20040;-90
2023/04/29 01:17:49;;;;;;;21.48;11.98;;;8.10;99.90;;;;;;4861583;29;20086;-91
2023/04/29 01:20:17;;;;;;;21.25;11.68;;;8.10;99.90;;;;;;4867759;29;20029;-91
2023/04/29 01:22:42;;;;;;;19.83;10.73;;;8.10;99.90;;;;;;4881807;29;20044;-90
2023/04/29 01:25:08;;;;;;;18.63;10.27;;;8.10;99.90;;;;;;4869791;29;20032;-91
2023/04/29 01:27:49;;;;;;;17.92;11.20;;;8.10;99.90;;;;;;4867371;29;20029;-91
2023/04/29 01:30:18;;;;;;;;;;;8.10;99.90;;;;;;4868077;29;20062;-92
2023/04/29 01:33:15;;;;;;;18.52;11.20;;;8.10;99.90;;;;;;4883649;29;20385;-92
2023/04/29 01:36:02;;;;;;;20.55;10.70;;;8.10;99.90;;;;;;4860049;29;20033;-92
2023/04/29 01:38:37;;;;;;;15.13;9.65;;;8.20;99.90;;;;;;4881157;29;20053;-92
2023/04/29 01:41:41;;;;;;;16.20;9.90;;;8.10;99.90;;;;;;4866920;29;20049;-91
2023/04/29 01:44:12;;;;;;;14.43;9.20;;;8.10;99.90;;;;;;4862344;29;20037;-92
2023/04/29 01:46:39;;;;;;;16.25;10.75;;;8.10;99.90;;;;;;4882573;29;20025;-93
2023/04/29 01:49:06;;;;;;;16.92;10.70;;;8.10;99.90;;;;;;4866671;29;20029;-92
2023/04/29 01:51:33;;;;;;;14.20;8.52;;;8.10;99.90;;;;;;4860444;29;20049;-90
2023/04/29 01:53:59;;;;;;;15.48;9.57;;;8.10;99.90;;;;;;4866102;29;20024;-92
2023/04/29 01:56:24;;;;;;;14.60;9.95;;;8.00;99.90;;;;;;4866921;29;20033;-90
2023/04/29 01:58:50;;;;;;;13.88;10.60;;;8.00;99.90;;;;;;4866221;29;20466;-91
2023/04/29 02:01:16;;;;;;;17.55;9.57;;;8.00;99.90;;;;;;4866580;29;20041;-90
2023/04/29 02:03:41;;;;;;;18.70;10.93;;;8.00;99.90;;;;;;4866289;29;20546;-91
2023/04/29 02:06:07;;;;;;;13.68;8.30;;;7.90;99.90;;;;;;4865772;29;20021;-90
2023/04/29 02:08:33;;;;;;;17.13;10.63;;;7.90;99.90;;;;;;4866077;29;20180;-92
2023/04/29 02:10:59;;;;;;;12.98;8.60;;;7.90;99.90;;;;;;4866819;29;20027;-91
2023/04/29 02:13:25;;;;;;;17.98;11.40;;;7.80;99.90;;;;;;4866398;29;20043;-92
2023/04/29 02:15:51;;;;;;;14.48;9.43;;;7.80;99.90;;;;;;4865885;29;20092;-91
2023/04/29 02:18:17;;;;;;;17.00;10.55;;;7.80;99.90;;;;;;4863958;29;20433;-91
2023/04/29 02:20:43;;;;;;;14.68;9.90;;;7.80;99.90;;;;;;4866118;29;20033;-92
2023/04/29 02:23:08;;;;;;;11.50;7.82;;;7.70;99.90;;;;;;4881016;29;20029;-89
2023/04/29 02:25:34;;;;;;;16.70;10.80;;;7.70;99.90;;;;;;4884887;29;20033;-91
2023/04/29 02:28:00;;;;;;;17.20;10.40;;;7.70;99.90;;;;;;4870191;29;20033;-92
2023/04/29 02:30:25;;;;;;;16.95;10.32;;;7.70;99.90;;;;;;4865490;29;20077;-92
2023/04/29 02:32:52;;;;;;;14.55;10.35;;;7.60;99.90;;;;;;4865248;29;20045;-93
2023/04/29 02:35:17;;;;;;;16.92;10.93;;;7.60;99.90;;;;;;4880342;29;20036;-92
2023/04/29 02:37:44;;;;;;;14.52;10.00;;;7.60;99.90;;;;;;4864975;29;20033;-92
2023/04/29 02:40:10;;;;;;;16.20;10.63;;;7.60;99.90;;;;;;4865221;29;20029;-91
2023/04/29 02:42:36;;;;;;;17.52;11.00;;;7.50;99.90;;;;;;4865195;29;20053;-92
2023/04/29 02:45:02;;;;;;;21.63;13.10;;;7.60;99.90;;;;;;4864058;29;20025;-92
2023/04/29 02:47:28;;;;;;;19.52;13.07;;;7.60;99.90;;;;;;4868262;29;20049;-92
2023/04/29 02:49:54;;;;;;;19.55;12.32;;;7.60;99.90;;;;;;4864797;29;20064;-92
2023/04/29 02:52:20;;;;;;;18.05;11.68;;;7.60;99.90;;;;;;4864949;29;20220;-93
2023/04/29 02:54:46;;;;;;;17.40;12.32;;;7.50;99.90;;;;;;4865223;29;20032;-93
2023/04/29 02:57:11;;;;;;;17.48;10.50;;;7.50;99.90;;;;;;4864927;29;20689;-92
2023/04/29 02:59:37;;;;;;;16.65;10.55;;;7.50;99.90;;;;;;4865697;29;20526;-93
2023/04/29 03:02:03;;;;;;;19.33;11.60;;;7.40;99.90;;;;;;4865315;29;20033;-92
2023/04/29 03:04:29;;;;;;;17.80;12.32;;;7.40;99.90;;;;;;4864844;29;20040;-92
2023/04/29 03:06:58;;;;;;;16.10;11.38;;;7.40;99.90;;;;;;4879961;29;20216;-91
2023/04/29 03:09:24;;;;;;;20.17;13.68;;;7.40;99.90;;;;;;4860011;29;20108;-92
2023/04/29 03:11:49;;;;;;;17.52;12.77;;;7.30;99.90;;;;;;4864968;29;20186;-93
2023/04/29 03:14:15;;;;;;;21.77;14.20;;;7.30;99.90;;;;;;4864445;29;20160;-91
2023/04/29 03:16:41;;;;;;;19.33;12.82;;;7.30;99.90;;;;;;4864707;29;20017;-93
2023/04/29 03:19:07;;;;;;;19.65;13.80;;;7.30;99.90;;;;;;4864291;29;20036;-92
2023/04/29 03:21:33;;;;;;;21.13;13.98;;;7.30;99.90;;;;;;4880465;29;20705;-93
2023/04/29 03:23:59;;;;;;;19.77;13.18;;;7.30;99.90;;;;;;4864233;29;20096;-93
2023/04/29 03:26:24;;;;;;;22.98;14.70;;;7.30;99.90;;;;;;4863593;29;20117;-91
2023/04/29 03:28:50;;;;;;;23.17;14.82;;;7.30;99.90;;;;;;4862282;29;20028;-93
2023/04/29 03:31:16;;;;;;;21.42;14.00;;;7.30;99.90;;;;;;4870229;29;20041;-91
2023/04/29 03:33:42;;;;;;;20.40;12.93;;;7.30;99.90;;;;;;4869922;29;20056;-92
2023/04/29 03:36:08;;;;;;;20.45;13.23;;;7.30;99.90;;;;;;4867812;29;20550;-92
2023/04/29 03:38:34;;;;;;;22.48;15.15;;;7.30;99.90;;;;;;4864289;29;20519;-92
2023/04/29 03:41:00;;;;;;;19.55;12.60;;;7.30;99.90;;;;;;4866232;29;20036;-92
2023/04/29 03:43:26;;;;;;;20.65;12.65;;;7.40;99.90;;;;;;4859726;29;20036;-92
2023/04/29 03:45:52;;;;;;;22.40;14.40;;;7.30;99.90;;;;;;4863909;29;20037;-92
2023/04/29 03:48:20;;;;;;;22.20;13.25;;;7.40;99.90;;;;;;4863998;29;20025;-92
2023/04/29 03:50:46;;;;;;;20.70;12.82;;;7.40;99.90;;;;;;4864147;29;20029;-92
2023/04/29 03:53:12;;;;;;;15.18;10.43;;;7.30;99.90;;;;;;4864057;29;20053;-91
2023/04/29 03:55:38;;;;;;;15.57;11.00;;;7.30;99.90;;;;;;4864332;29;20080;-92
2023/04/29 03:58:04;;;;;;;14.80;10.82;;;7.30;99.90;;;;;;4863990;29;20029;-92
2023/04/29 04:00:30;;;;;;;17.38;11.02;;;7.20;99.90;;;;;;4858336;29;20127;-93
2023/04/29 04:02:59;;;;;;;17.85;11.02;;;7.20;99.90;;;;;;4864488;29;20025;-92
2023/04/29 04:05:25;;;;;;;19.58;11.75;;;7.20;99.90;;;;;;4848230;29;20033;-92
2023/04/29 04:07:52;;;;;;;16.33;10.88;;;7.20;99.90;;;;;;4874625;29;20032;-91
2023/04/29 04:10:18;;;;;;;20.05;11.85;;;7.20;99.90;;;;;;4879134;29;20037;-91
2023/04/29 04:12:44;;;;;;;14.57;10.35;;;7.10;99.90;;;;;;4894447;29;20033;-91
2023/04/29 04:15:10;;;;;;;17.13;11.35;;;7.10;99.90;;;;;;4880643;29;20013;-91
2023/04/29 04:17:36;;;;;;;12.82;8.57;;;7.10;99.90;;;;;;4886553;29;20036;-89
2023/04/29 04:20:01;;;;;;;17.50;10.90;;;7.10;99.90;;;;;;4886152;29;20308;-91
2023/04/29 04:22:27;;;;;;;18.48;10.82;;;7.10;99.90;;;;;;4876220;29;20067;-92
2023/04/29 04:24:55;;;;;;;14.85;10.38;;;7.00;99.90;;;;;;4868768;29;20027;-92
2023/04/29 04:27:21;;;;;;;15.38;10.25;;;7.00;99.90;;;;;;4869338;29;20128;-91
2023/04/29 04:29:47;;;;;;;16.27;9.88;;;7.00;99.90;;;;;;4867564;29;20428;-93
2023/04/29 04:32:13;;;;;;;15.15;10.05;;;7.00;99.90;;;;;;4877277;29;20041;-92
2023/04/29 04:34:38;;;;;;;16.30;10.73;;;7.00;99.90;;;;;;4864075;29;20041;-92
2023/04/29 04:37:05;;;;;;;16.60;10.32;;;6.90;99.90;;;;;;4869424;29;20044;-91
2023/04/29 04:39:32;;;;;;;17.60;10.13;;;6.90;99.90;;;;;;4863542;29;20025;-91
2023/04/29 04:41:58;;;;;;;13.93;9.48;;;6.80;99.90;;;;;;4866480;29;20029;-91
2023/04/29 04:44:23;;;;;;;19.25;11.90;;;6.80;99.90;;;;;;4870715;29;20067;-90
2023/04/29 04:46:52;;;;;;;17.23;10.90;;;6.80;99.90;;;;;;4878429;29;20122;-91
2023/04/29 04:49:18;;;;;;;18.67;11.75;;;6.80;99.90;;;;;;4877430;29;20025;-91
2023/04/29 04:51:44;;;;;;;20.83;11.93;;;6.80;99.90;;;;;;4874707;29;20029;-91
2023/04/29 04:54:10;;;;;;;19.80;11.98;;;6.70;99.90;;;;;;4868464;29;20108;-91
2023/04/29 04:56:36;;;;;;;19.98;11.75;;;6.70;99.90;;;;;;4857132;29;20026;-91
2023/04/29 04:59:02;;;;;;;14.23;8.68;;;6.70;99.90;;;;;;4866274;29;20479;-91
2023/04/29 05:01:28;;;;;;;23.52;12.45;;;6.70;99.90;;;;;;4879561;29;20045;-91
2023/04/29 05:03:54;;;;;;;18.92;10.82;;;6.60;99.90;;;;;;4856514;29;20021;-91
2023/04/29 05:06:20;;;;;;;20.02;11.23;;;6.60;99.90;;;;;;4869139;29;20025;-91
2023/04/29 05:08:46;;;;;;;18.42;10.75;;;6.60;99.90;;;;;;4873024;29;20021;-91
2023/04/29 05:11:16;;;;;;;16.48;10.45;;;6.60;99.90;;;;;;4872211;29;20029;-92
2023/04/29 05:13:42;;;;;;;;;;;6.60;99.90;;;;;;4875488;29;20451;-91
2023/04/29 05:16:08;;;;;;;21.30;11.95;;;6.60;99.90;;;;;;4872500;29;19912;-91
2023/04/29 05:18:33;;;;;;;19.10;11.77;;;6.60;99.90;;;;;;4871971;29;20029;-92
2023/04/29 05:20:59;;;;;;;19.20;12.13;;;6.60;99.90;;;;;;4868837;29;20507;-90
2023/04/29 05:23:25;;;;;;;21.13;12.63;;;6.70;99.90;;;;;;4869085;29;20033;-91
2023/04/29 05:25:51;;;;;;;21.77;13.20;;;6.70;99.90;;;;;;4864344;29;20377;-91
2023/04/29 05:28:16;;;;;;;19.13;12.50;;;6.70;99.90;;;;;;4863906;29;20029;-92
2023/04/29 05:30:43;;;;;;;18.75;12.20;;;6.60;99.90;;;;;;4861439;29;20033;-91
2023/04/29 05:33:08;;;;;;;19.77;11.70;;;6.70;99.90;;;;;;4863742;29;20072;-92
2023/04/29 05:35:34;;;;;;;19.88;12.77;;;6.60;99.90;;;;;;4869074;29;20081;-91
2023/04/29 05:38:00;;;;;;;20.23;12.50;;;6.70;99.90;;;;;;4865659;29;20032;-92
2023/04/29 05:40:26;;;;;;;20.13;13.15;;;6.70;99.90;;;;;;4867457;29;20052;-91
2023/04/29 05:42:51;;;;;;;23.20;13.68;;;6.60;99.90;;;;;;4879500;29;20030;-92
2023/04/29 05:45:17;;;;;;;22.50;13.82;;;6.60;99.90;;;;;;4882073;29;20179;-91
2023/04/29 05:47:43;;;;;;;20.95;13.07;;;6.60;99.90;;;;;;4881111;29;20021;-90
2023/04/29 05:50:09;;;;;;;23.88;13.07;;;6.60;99.90;;;;;;4877540;29;20028;-92
2023/04/29 05:52:34;;;;;;;21.50;13.45;;;6.70;99.90;;;;;;4862989;29;20025;-91
2023/04/29 05:55:00;;;;;;;22.63;13.30;;;6.70;99.90;;;;;;4863136;29;20024;-91
2023/04/29 05:57:27;;;;;;;25.23;15.32;;;6.70;99.90;;;;;;4862037;29;20037;-91
2023/04/29 05:59:56;;;;;;;29.83;16.50;;;6.70;99.90;;;;;;4863353;29;20559;-92
2023/04/29 06:02:22;;;;;;;29.30;17.50;;;6.80;99.90;;;;;;4863340;29;20041;-91
2023/04/29 06:04:47;;;;;;;33.70;17.98;;;6.80;99.90;;;;;;4864182;29;20029;-91
2023/04/29 06:07:13;;;;;;;31.25;18.05;;;6.90;99.90;;;;;;4867026;29;20064;-91
2023/04/29 06:09:40;;;;;;;28.02;15.35;;;6.90;99.90;;;;;;4865471;29;20428;-91
2023/04/29 06:12:08;;;;;;;33.72;19.52;;;7.00;99.90;;;;;;4867601;29;20482;-90
2023/04/29 06:14:34;;;;;;;31.88;18.08;;;7.10;99.90;;;;;;4870796;29;20053;-92
2023/04/29 06:16:59;;;;;;;27.80;16.38;;;7.20;99.90;;;;;;4866833;29;20084;-91
2023/04/29 06:19:25;;;;;;;28.70;17.63;;;7.30;99.90;;;;;;4866246;29;20029;-91
2023/04/29 06:21:51;;;;;;;33.97;19.77;;;7.30;99.90;;;;;;4866509;29;20049;-92
2023/04/29 06:24:16;;;;;;;32.35;19.30;;;7.40;99.90;;;;;;4882240;29;20046;-91
2023/04/29 06:26:42;;;;;;;32.47;17.85;;;7.50;99.90;;;;;;4883170;29;20089;-91
2023/04/29 06:29:08;;;;;;;29.33;17.55;;;7.50;99.90;;;;;;4870569;29;20025;-91
2023/04/29 06:31:34;;;;;;;30.20;16.83;;;7.60;99.90;;;;;;4866199;29;20028;-90
2023/04/29 06:33:59;;;;;;;28.48;15.35;;;7.70;99.90;;;;;;4865482;29;20037;-91
2023/04/29 06:36:26;;;;;;;30.00;14.40;;;7.70;99.90;;;;;;4866079;29;20037;-91
2023/04/29 06:38:52;;;;;;;25.75;14.63;;;7.80;99.90;;;;;;4882811;29;20033;-90
2023/04/29 06:41:18;;;;;;;25.83;13.85;;;7.90;99.90;;;;;;4866583;29;20045;-91
2023/04/29 06:43:43;;;;;;;24.83;13.45;;;7.90;99.90;;;;;;4866444;29;20085;-91
2023/04/29 06:46:09;;;;;;;21.83;13.25;;;8.00;99.90;;;;;;4883654;29;20032;-91
2023/04/29 06:48:36;;;;;;;21.83;13.07;;;8.10;99.90;;;;;;4865608;29;20025;-90
2023/04/29 06:51:02;;;;;;;23.45;13.73;;;8.10;99.90;;;;;;4850475;29;20093;-91
2023/04/29 06:53:28;;;;;;;27.52;14.63;;;8.20;99.90;;;;;;4865345;29;20044;-91
2023/04/29 06:55:54;;;;;;;25.50;14.57;;;8.30;99.90;;;;;;4865768;29;20128;-90
2023/04/29 06:58:19;;;;;;;26.40;14.98;;;8.30;99.90;;;;;;4866563;29;20044;-90
2023/04/29 07:00:47;;;;;;;29.55;15.70;;;8.40;99.90;;;;;;4869189;29;20104;-90
2023/04/29 07:03:13;;;;;;;30.83;17.45;;;8.50;99.90;;;;;;4884590;29;20032;-89
2023/04/29 07:05:40;;;;;;;30.73;16.77;;;8.50;99.90;;;;;;4882396;29;20029;-93
2023/04/29 07:08:07;;;;;;;25.80;14.48;;;8.60;99.90;;;;;;4865368;29;20411;-90
2023/04/29 07:10:33;;;;;;;24.25;15.60;;;8.70;99.90;;;;;;4864915;29;20025;-91
2023/04/29 07:12:59;;;;;;;25.02;15.27;;;8.70;99.90;;;;;;4863837;29;20093;-91
2023/04/29 07:15:26;;;;;;;26.92;15.02;;;8.80;99.90;;;;;;4864514;29;20136;-93
2023/04/29 07:17:52;;;;;;;29.45;16.23;;;8.90;99.90;;;;;;4878675;29;20037;-91
2023/04/29 07:20:18;;;;;;;25.85;15.63;;;8.90;99.90;;;;;;4876717;29;20399;-92
2023/04/29 07:22:44;;;;;;;30.95;17.38;;;9.00;99.90;;;;;;4859765;29;20040;-92
2023/04/29 07:25:09;;;;;;;26.70;16.38;;;9.00;99.90;;;;;;4865660;29;20025;-91
2023/04/29 07:27:36;;;;;;;25.55;15.13;;;9.10;99.90;;;;;;4862879;29;20069;-91
2023/04/29 07:30:03;;;;;;;28.42;15.88;;;9.10;99.90;;;;;;4885182;29;20022;-92
2023/04/29 07:32:33;;;;;;;25.90;15.80;;;9.20;99.90;;;;;;4860990;29;20053;-92
2023/04/29 07:34:59;;;;;;;30.85;16.08;;;9.30;99.90;;;;;;4864983;29;20025;-92
2023/04/29 07:37:25;;;;;;;29.15;16.98;;;9.30;99.90;;;;;;4864358;29;20044;-92
2023/04/29 07:39:51;;;;;;;31.23;15.80;;;9.30;99.90;;;;;;4865083;29;20052;-92
2023/04/29 07:42:17;;;;;;;27.50;15.48;;;9.40;99.90;;;;;;4864389;29;20484;-93
2023/04/29 07:44:44;;;;;;;26.88;15.63;;;9.40;99.90;;;;;;4854689;29;20033;-91
2023/04/29 07:47:10;;;;;;;29.48;17.73;;;9.50;99.90;;;;;;4863753;29;20029;-92
2023/04/29 07:49:36;;;;;;;33.33;18.45;;;9.50;99.90;;;;;;4865296;29;20407;-92
2023/04/29 07:52:03;;;;;;;32.67;17.33;;;9.60;99.90;;;;;;4865476;29;20021;-93
2023/04/29 07:54:29;;;;;;;30.48;16.95;;;9.70;99.90;;;;;;4865099;29;20029;-90
2023/04/29 07:56:57;;;;;;;31.10;17.45;;;9.70;99.90;;;;;;4864906;29;20092;-92
2023/04/29 07:59:26;;;;;;;31.15;17.20;;;9.80;99.90;;;;;;4864775;29;20029;-91
2023/04/29 08:01:52;;;;;;;30.05;16.15;;;9.80;99.90;;;;;;4863535;29;20104;-95
2023/04/29 08:04:18;;;;;;;32.95;16.92;;;9.90;99.90;;;;;;4863993;29;20021;-92
2023/04/29 08:06:44;;;;;;;30.13;17.35;;;10.00;99.90;;;;;;4857168;29;20053;-92
2023/04/29 08:09:10;;;;;;;26.13;15.82;;;10.00;99.90;;;;;;4864490;29;20398;-92
2023/04/29 08:11:35;;;;;;;26.98;16.67;;;10.10;99.90;;;;;;4862634;29;20071;-94
2023/04/29 08:14:01;;;;;;;31.67;17.55;;;10.20;99.90;;;;;;4864550;29;20475;-92
2023/04/29 08:16:27;;;;;;;27.00;16.13;;;10.20;99.90;;;;;;4864350;29;20064;-92
2023/04/29 08:18:53;;;;;;;31.67;17.23;;;10.30;99.90;;;;;;4865963;29;20029;-91
2023/04/29 08:21:19;;;;;;;27.90;16.05;;;10.40;99.90;;;;;;4865566;29;20404;-91
2023/04/29 08:23:45;;;;;;;26.35;15.63;;;10.50;99.90;;;;;;4866213;29;20399;-93
2023/04/29 08:26:13;;;;;;;29.40;15.27;;;10.60;99.90;;;;;;4870535;29;20029;-93
2023/04/29 08:28:39;;;;;;;27.98;14.60;;;10.80;99.90;;;;;;4866766;29;20056;-94
2023/04/29 08:31:06;;;;;;;28.23;14.25;;;10.90;99.90;;;;;;4848259;29;20130;-93
2023/04/29 08:33:35;;;;;;;24.58;14.35;;;11.10;99.90;;;;;;4865695;29;20056;-93
2023/04/29 08:36:02;;;;;;;23.20;14.63;;;11.10;99.90;;;;;;4865928;29;20067;-92
2023/04/29 08:38:29;;;;;;;25.52;14.27;;;11.20;99.90;;;;;;4867748;29;20033;-93
2023/04/29 08:40:55;;;;;;;25.90;14.57;;;11.30;99.90;;;;;;4868307;29;20041;-92
2023/04/29 08:43:21;;;;;;;23.20;13.70;;;11.40;99.90;;;;;;4864372;29;20144;-92
2023/04/29 08:45:50;;;;;;;24.95;14.57;;;11.50;99.90;;;;;;4864748;29;20021;-93
2023/04/29 08:48:17;;;;;;;21.73;14.35;;;11.60;99.90;;;;;;4865543;29;20072;-91
2023/04/29 08:50:43;;;;;;;22.92;13.80;;;11.70;99.90;;;;;;4864589;29;20116;-94
2023/04/29 08:53:11;;;;;;;25.25;14.38;;;11.90;99.90;;;;;;4865206;29;20136;-93
2023/04/29 08:55:44;;;;;;;27.27;15.05;;;12.20;99.90;;;;;;4863886;29;20509;-95
2023/04/29 08:58:12;;;;;;;23.00;13.30;;;12.40;99.90;;;;;;4864545;29;20519;-93
2023/04/29 09:00:39;;;;;;;21.33;12.13;;;12.70;99.90;;;;;;4864654;29;20062;-95
2023/04/29 09:03:19;;;;;;;20.27;12.00;;;12.90;99.90;;;;;;4865308;29;20033;-94
2023/04/29 09:05:49;;;;;;;20.52;12.88;;;13.00;99.90;;;;;;4863876;29;20132;-95
2023/04/29 09:08:15;;;;;;;22.13;12.57;;;13.20;99.90;;;;;;4869508;29;20101;-95
2023/04/29 09:10:42;;;;;;;22.25;13.52;;;13.30;99.90;;;;;;4869843;29;20036;-94
2023/04/29 09:13:08;;;;;;;22.42;13.05;;;13.40;99.90;;;;;;4870134;29;20021;-94
2023/04/29 09:15:40;;;;;;;21.60;12.85;;;13.50;99.90;;;;;;4871027;29;20096;-94
2023/04/29 09:18:05;;;;;;;25.10;12.02;;;13.70;99.90;;;;;;4872317;29;20025;-94
2023/04/29 09:20:31;;;;;;;20.60;12.65;;;13.90;99.90;;;;;;4876593;29;20025;-94
2023/04/29 09:23:05;;;;;;;19.17;10.75;;;14.20;99.90;;;;;;4872751;29;20057;-95
2023/04/29 09:25:30;;;;;;;17.20;8.93;;;14.40;99.90;;;;;;4872449;29;20124;-95
2023/04/29 09:27:56;;;;;;;13.48;8.65;;;14.70;99.90;;;;;;4871288;29;20060;-95
2023/04/29 09:30:23;;;;;;;14.68;9.43;;;14.90;99.90;;;;;;4868707;29;20041;-94
2023/04/29 09:33:08;;;;;;;14.70;9.93;;;15.20;99.90;;;;;;4864621;29;20049;-93
2023/04/29 09:35:35;;;;;;;16.80;9.43;;;15.50;99.90;;;;;;4869005;29;20040;-93
2023/04/29 09:38:19;;;;;;;15.02;9.90;;;15.70;99.90;;;;;;4868532;29;20079;-93
2023/04/29 09:40:45;;;;;;;14.43;9.70;;;15.90;99.90;;;;;;4868117;29;20055;-94
2023/04/29 09:43:18;;;;;;;13.60;8.60;;;16.10;99.90;;;;;;4868065;29;20471;-94
2023/04/29 09:45:46;;;;;;;13.27;7.60;;;16.30;99.90;;;;;;4870051;29;20032;-95
2023/04/29 09:48:12;;;;;;;8.18;5.70;;;16.50;99.90;;;;;;4875071;29;20040;-95
2023/04/29 09:50:40;;;;;;;11.02;6.65;;;16.70;99.90;;;;;;4876448;29;20033;-95
2023/04/29 09:53:08;;;;;;;8.55;5.50;;;16.80;99.90;;;;;;4872237;29;20491;-95
2023/04/29 09:56:00;;;;;;;7.45;5.15;;;16.90;99.90;;;;;;4874302;29;20029;-94
2023/04/29 09:58:37;;;;;;;7.15;4.70;;;17.00;99.90;;;;;;4863442;29;20479;-95
2023/04/29 10:01:04;;;;;;;7.53;5.50;;;17.20;99.90;;;;;;4870453;29;20481;-94
2023/04/29 10:03:35;;;;;;;7.82;4.30;;;17.40;99.90;;;;;;4873288;29;20026;-94
2023/04/29 10:06:02;;;;;;;3.92;3.05;;;17.60;99.90;;;;;;4875153;29;20052;-93
2023/04/29 10:08:32;;;;;;;4.57;3.47;;;17.70;99.90;;;;;;4871891;29;20029;-95
2023/04/29 10:11:03;;;;;;;3.65;2.58;;;17.90;99.90;;;;;;4872127;29;20048;-96
2023/04/29 10:13:29;;;;;;;5.43;1.92;;;18.10;99.90;;;;;;4876884;29;20158;-93
2023/04/29 10:16:16;;;;;;;0.90;0.90;;;18.20;99.90;;;;;;4878727;29;20039;-95
2023/04/29 10:18:51;;;;;;;1.85;1.10;;;18.40;99.50;;;;;;4878470;29;20025;-95
2023/04/29 10:21:20;;;;;;;0.80;0.80;;;18.60;98.30;;;;;;4878524;29;20069;-95
2023/04/29 10:23:47;;;;;;;2.72;1.00;;;18.80;96.50;;;;;;4875140;29;20029;-94
2023/04/29 10:26:15;;;;;;;1.10;1.00;;;18.90;94.90;;;;;;4874762;29;20051;-94
2023/04/29 10:28:44;;;;;;;1.92;1.20;;;19.00;92.90;;;;;;4871149;29;20047;-94
2023/04/29 10:31:13;;;;;;;2.67;1.15;;;19.00;91.70;;;;;;4887665;29;20104;-95
2023/04/29 10:33:43;;;;;;;1.13;1.02;;;19.00;91.20;;;;;;4869756;29;20105;-94
2023/04/29 10:36:09;;;;;;;1.83;1.55;;;18.90;89.70;;;;;;4867647;29;20056;-94
2023/04/29 10:38:51;;;;;;;2.00;1.77;;;19.10;89.30;;;;;;4869557;29;20037;-95
2023/04/29 10:41:30;;;;;;;4.63;2.78;;;19.00;86.80;;;;;;4869505;29;20038;-95
2023/04/29 10:43:58;;;;;;;2.60;2.33;;;19.00;85.80;;;;;;4869531;29;20044;-96
2023/04/29 10:46:25;;;;;;;3.42;2.60;;;19.00;86.50;;;;;;4868641;29;20032;-93
2023/04/29 10:49:05;;;;;;;3.00;2.22;;;19.00;86.00;;;;;;4870593;29;20029;-95
2023/04/29 10:51:40;;;;;;;2.75;2.20;;;19.00;86.10;;;;;;4885726;29;20057;-96
2023/04/29 10:54:24;;;;;;;2.70;1.70;;;19.00;85.90;;;;;;4869862;29;20063;-95
2023/04/29 10:56:54;;;;;;;4.47;1.73;;;19.00;84.80;;;;;;4869303;29;20048;-95
2023/04/29 10:59:21;;;;;;;2.00;1.80;;;18.80;84.10;;;;;;4869921;29;20104;-96
2023/04/29 11:01:49;;;;;;;1.98;1.77;;;18.70;84.50;;;;;;4869877;29;20036;-95
2023/04/29 11:04:17;;;;;;;2.30;1.80;;;18.60;84.70;;;;;;4883888;29;20025;-96
2023/04/29 11:07:01;;;;;;;2.03;1.80;;;18.60;84.50;;;;;;4873095;29;20032;-93
2023/04/29 11:09:29;;;;;;;3.45;1.60;;;18.50;84.20;;;;;;4873903;29;20120;-93
2023/04/29 11:12:02;;;;;;;3.13;1.60;;;18.50;84.50;;;;;;4882872;29;20030;-94
2023/04/29 11:14:48;;;;;;;3.40;2.05;;;18.60;84.60;;;;;;4885607;29;20038;-93
2023/04/29 11:17:16;;;;;;;3.72;2.00;;;18.80;84.90;;;;;;4886591;29;20030;-93
2023/04/29 11:19:47;;;;;;;2.63;2.13;;;19.10;84.00;;;;;;4888466;29;20017;-91
2023/04/29 11:22:25;;;;;;;1.92;1.60;;;19.30;83.50;;;;;;4887997;29;20037;-93
2023/04/29 11:25:00;;;;;;;2.17;1.58;;;19.50;82.90;;;;;;4872749;29;20116;-93
2023/04/29 11:27:29;;;;;;;4.45;1.98;;;19.60;81.90;;;;;;4870308;29;20101;-95
2023/04/29 11:29:59;;;;;;;1.67;1.40;;;19.60;81.40;;;;;;4868299;29;20498;-95
2023/04/29 11:32:26;;;;;;;2.00;1.65;;;19.60;80.90;;;;;;4867673;29;20041;-93
2023/04/29 11:34:52;;;;;;;3.25;2.00;;;19.60;80.40;;;;;;4869360;29;20036;-94
2023/04/29 11:37:26;;;;;;;2.38;2.08;;;19.60;80.10;;;;;;4871695;29;20029;-95
2023/04/29 11:40:00;;;;;;;3.03;2.15;;;19.50;79.90;;;;;;4871516;29;20025;-95
2023/04/29 11:42:27;;;;;;;3.45;2.20;;;19.50;80.20;;;;;;4870093;29;20132;-96
2023/04/29 11:44:55;;;;;;;2.65;2.40;;;19.40;80.00;;;;;;4871479;29;20021;-94
2023/04/29 11:47:26;;;;;;;2.30;2.10;;;19.30;79.80;;;;;;4871432;29;20052;-93
2023/04/29 11:49:53;;;;;;;3.22;2.33;;;19.10;79.80;;;;;;4871655;29;20029;-94
2023/04/29 11:52:19;;;;;;;3.08;2.40;;;19.00;80.00;;;;;;4872993;29;20053;-93
2023/04/29 11:54:46;;;;;;;3.28;2.42;;;18.90;80.20;;;;;;4873590;29;20025;-93
2023/04/29 11:57:12;;;;;;;4.20;2.60;;;18.80;80.50;;;;;;4875493;29;20036;-95
2023/04/29 11:59:41;;;;;;;4.68;2.83;;;18.80;80.90;;;;;;4872728;29;20040;-96
2023/04/29 12:02:12;;;;;;;3.55;3.00;;;18.70;81.20;;;;;;4871229;29;20109;-96
2023/04/29 12:04:45;;;;;;;4.18;2.53;;;18.60;81.20;;;;;;4869332;29;20033;-95
2023/04/29 12:07:16;;;;;;;6.03;3.80;;;18.50;81.40;;;;;;4866753;29;20033;-95
2023/04/29 12:09:42;;;;;;;;;;;18.40;81.50;;;;;;4868397;29;20021;-95
2023/04/29 12:12:08;;;;;;;10.20;5.63;;;18.30;82.20;;;;;;4869240;29;20425;-94
2023/04/29 12:14:34;;;;;;;9.68;6.65;;;18.20;82.50;;;;;;4868920;29;20052;-96
2023/04/29 12:17:00;;;;;;;11.48;7.78;;;18.20;82.80;;;;;;4866931;29;20033;-95
2023/04/29 12:19:26;;;;;;;11.02;8.35;;;18.20;83.60;;;;;;4866343;29;20036;-95
2023/04/29 12:21:52;;;;;;;11.50;8.57;;;18.20;84.30;;;;;;4865819;29;20045;-92
2023/04/29 12:24:20;;;;;;;10.63;8.02;;;18.20;85.00;;;;;;4866580;29;20626;-95
2023/04/29 12:26:46;;;;;;;15.63;8.93;;;18.30;85.40;;;;;;4865460;29;20033;-95
2023/04/29 12:29:13;;;;;;;9.70;7.75;;;18.60;85.40;;;;;;4865304;29;20040;-94
2023/04/29 12:31:38;;;;;;;9.20;7.82;;;19.00;85.00;;;;;;4866299;29;20543;-94
2023/04/29 12:34:04;;;;;;;10.63;7.60;;;19.30;83.90;;;;;;4866020;29;20097;-94
2023/04/29 12:36:31;;;;;;;9.43;6.82;;;19.60;81.70;;;;;;4866588;29;20028;-95
2023/04/29 12:38:58;;;;;;;7.72;5.97;;;19.80;80.80;;;;;;4865410;29;20449;-93
2023/04/29 12:41:41;;;;;;;8.10;5.63;;;20.10;80.20;;;;;;4864951;29;20033;-94
2023/04/29 12:44:07;;;;;;;7.90;6.35;;;20.50;79.30;;;;;;4864830;29;20033;-94